Time;durP1;ratioP1;P1;durP2;ratioP2;P2;SDS_P1;SDS_P2;PMS_P1;PMS_P2;Temp;Humidity;BMP_temperature;BMP_pressure;BME280_temperature;BME280_humidity;BME280_pressure;Samples;Min_cycle;Max_cycle;Signal;HPM_P1;HPM_P2
2023/05/10 00:00:40;;;;;;;1.87;1.77;;;22.20;89.60;;;;;;4989830;28;20475;-83
2023/05/10 00:03:06;;;;;;;2.00;1.90;;;22.20;89.60;;;;;;4989104;28;20486;-84
2023/05/10 00:05:33;;;;;;;2.07;1.90;;;22.20;89.60;;;;;;4990025;28;20518;-82
2023/05/10 00:08:00;;;;;;;1.77;1.60;;;22.20;89.60;;;;;;4992395;28;20472;-83
2023/05/10 00:10:26;;;;;;;2.10;1.90;;;22.20;89.60;;;;;;4996227;28;20924;-81
2023/05/10 00:12:53;;;;;;;1.53;1.43;;;22.20;89.60;;;;;;4992161;28;20465;-83
2023/05/10 00:15:20;;;;;;;2.53;2.20;;;22.20;89.50;;;;;;4983516;28;20510;-83
2023/05/10 00:17:48;;;;;;;1.97;1.77;;;22.20;89.50;;;;;;4985880;28;20464;-84
2023/05/10 00:20:15;;;;;;;2.20;1.60;;;22.20;89.60;;;;;;4993799;28;20912;-84
2023/05/10 00:22:41;;;;;;;2.33;1.93;;;22.20;89.50;;;;;;4993774;28;20807;-83
2023/05/10 00:25:09;;;;;;;1.60;1.50;;;22.20;89.50;;;;;;4990659;28;20460;-83
2023/05/10 00:27:36;;;;;;;2.00;1.90;;;22.10;89.40;;;;;;4991430;28;20460;-83
2023/05/10 00:30:03;;;;;;;2.80;2.60;;;22.20;89.50;;;;;;4984810;28;20457;-83
2023/05/10 00:32:30;;;;;;;1.63;1.53;;;22.20;89.50;;;;;;4991209;28;20455;-83
2023/05/10 00:34:58;;;;;;;1.50;1.40;;;22.20;89.50;;;;;;4998629;28;20448;-83
2023/05/10 00:37:25;;;;;;;1.70;1.57;;;22.10;89.30;;;;;;4988611;28;20480;-82
2023/05/10 00:39:51;;;;;;;2.50;2.30;;;22.10;89.40;;;;;;4994617;28;20856;-80
2023/05/10 00:42:18;;;;;;;1.80;1.47;;;22.10;89.30;;;;;;4992723;28;20467;-82
2023/05/10 00:44:46;;;;;;;1.83;1.73;;;22.10;89.30;;;;;;4991540;28;20488;-83
2023/05/10 00:47:13;;;;;;;2.50;1.90;;;22.10;89.30;;;;;;4992616;28;20858;-82
2023/05/10 00:49:40;;;;;;;2.00;1.90;;;22.10;89.30;;;;;;4993736;28;20486;-82
2023/05/10 00:52:08;;;;;;;1.93;1.80;;;22.10;89.30;;;;;;4985383;28;20823;-82
2023/05/10 00:54:35;;;;;;;1.90;1.70;;;22.10;89.30;;;;;;4996689;28;20464;-82
2023/05/10 00:57:03;;;;;;;2.20;2.00;;;22.10;89.30;;;;;;4985183;28;20464;-82
2023/05/10 00:59:30;;;;;;;1.92;1.83;;;22.10;89.30;;;;;;4993592;28;20550;-83
2023/05/10 01:01:57;;;;;;;5.10;2.20;;;22.00;89.20;;;;;;4989602;28;20202;-83
2023/05/10 01:04:28;;;;;;;2.07;1.87;;;22.10;89.30;;;;;;4996313;28;20484;-82
2023/05/10 01:06:55;;;;;;;2.57;2.17;;;22.10;89.30;;;;;;4992074;28;20924;-79
2023/05/10 01:09:24;;;;;;;1.80;1.60;;;22.10;89.30;;;;;;4996364;28;20468;-78
2023/05/10 01:11:51;;;;;;;1.80;1.70;;;22.00;89.20;;;;;;4994065;28;20464;-78
2023/05/10 01:14:19;;;;;;;2.30;1.87;;;22.00;89.20;;;;;;4991640;28;20460;-79
2023/05/10 01:16:49;;;;;;;2.43;2.00;;;22.00;89.20;;;;;;4988422;28;20456;-78
2023/05/10 01:19:22;;;;;;;1.70;1.60;;;22.00;89.30;;;;;;4993117;28;20441;-79
2023/05/10 01:21:54;;;;;;;2.50;2.30;;;22.00;89.20;;;;;;4993350;28;20488;-78
2023/05/10 01:24:52;;;;;;;1.93;1.63;;;22.00;89.20;;;;;;4984487;28;20488;-79
2023/05/10 01:27:39;;;;;;;2.37;2.17;;;22.00;89.30;;;;;;4988955;28;20459;-78
2023/05/10 01:30:36;;;;;;;1.80;1.70;;;22.00;89.20;;;;;;4991102;28;20466;-80
2023/05/10 01:33:11;;;;;;;2.20;2.00;;;22.00;89.30;;;;;;4977279;28;20476;-78
2023/05/10 01:35:42;;;;;;;1.67;1.57;;;22.00;89.20;;;;;;4980934;28;20467;-76
2023/05/10 01:38:18;;;;;;;2.20;2.00;;;22.00;89.20;;;;;;4984142;28;20471;-79
2023/05/10 01:40:55;;;;;;;1.70;1.60;;;22.00;89.20;;;;;;4995424;28;20978;-78
2023/05/10 01:43:27;;;;;;;1.63;1.53;;;22.00;89.20;;;;;;4990785;28;20479;-79
2023/05/10 01:46:04;;;;;;;2.20;2.03;;;21.90;89.10;;;;;;4990866;28;20453;-78
2023/05/10 01:48:33;;;;;;;1.70;1.60;;;22.00;89.30;;;;;;4993960;28;20847;-79
2023/05/10 01:51:00;;;;;;;1.77;1.67;;;22.00;89.20;;;;;;4989405;28;20460;-78
2023/05/10 01:53:28;;;;;;;1.77;1.67;;;22.00;89.30;;;;;;4995425;28;21031;-78
2023/05/10 01:55:57;;;;;;;1.93;1.73;;;22.00;89.20;;;;;;4996425;28;20456;-79
2023/05/10 01:58:28;;;;;;;1.70;1.60;;;22.00;89.20;;;;;;4997595;28;20460;-79
2023/05/10 02:00:55;;;;;;;2.13;2.03;;;21.90;89.10;;;;;;4982523;28;20463;-79
2023/05/10 02:03:24;;;;;;;1.60;1.50;;;21.90;89.10;;;;;;4987910;28;20967;-79
2023/05/10 02:05:54;;;;;;;1.45;1.35;;;21.90;89.00;;;;;;4987943;28;20464;-79
2023/05/10 02:08:22;;;;;;;2.30;1.93;;;21.90;89.10;;;;;;4991149;28;20206;-79
2023/05/10 02:10:51;;;;;;;1.90;1.80;;;21.90;89.20;;;;;;4986313;28;20511;-79
2023/05/10 02:13:19;;;;;;;1.70;1.60;;;21.90;89.10;;;;;;4996308;28;20997;-80
2023/05/10 02:15:49;;;;;;;2.03;1.80;;;21.90;89.00;;;;;;4986619;28;20783;-79
2023/05/10 02:18:17;;;;;;;2.03;1.90;;;21.90;89.10;;;;;;4986124;28;20471;-79
2023/05/10 02:20:46;;;;;;;1.90;1.80;;;21.90;89.00;;;;;;4992112;28;20527;-78
2023/05/10 02:23:15;;;;;;;2.00;1.73;;;21.90;89.00;;;;;;4994133;28;20463;-78
2023/05/10 02:25:44;;;;;;;2.10;1.93;;;21.90;89.00;;;;;;4989961;28;20543;-78
2023/05/10 02:28:13;;;;;;;1.63;1.50;;;21.90;89.10;;;;;;4990681;28;20526;-80
2023/05/10 02:30:40;;;;;;;1.93;1.70;;;21.80;88.90;;;;;;4980958;28;20209;-80
2023/05/10 02:33:07;;;;;;;1.70;1.60;;;21.90;89.10;;;;;;4990601;28;20462;-79
2023/05/10 02:35:35;;;;;;;2.00;1.90;;;21.90;89.10;;;;;;4987596;28;20463;-80
2023/05/10 02:38:03;;;;;;;2.20;1.53;;;21.80;89.00;;;;;;4997448;28;20812;-79
2023/05/10 02:40:32;;;;;;;1.70;1.60;;;21.80;89.00;;;;;;4988936;28;20842;-80
2023/05/10 02:43:02;;;;;;;2.17;2.00;;;21.80;89.00;;;;;;4994923;28;20562;-79
2023/05/10 02:45:31;;;;;;;1.70;1.53;;;21.80;89.00;;;;;;4990887;28;20480;-79
2023/05/10 02:47:59;;;;;;;1.93;1.73;;;21.80;89.00;;;;;;4985951;28;20943;-78
2023/05/10 02:50:28;;;;;;;1.73;1.63;;;21.80;89.00;;;;;;4988591;28;20471;-78
2023/05/10 02:53:00;;;;;;;2.03;1.40;;;21.80;88.90;;;;;;4983149;28;20468;-79
2023/05/10 02:55:32;;;;;;;1.87;1.70;;;21.80;89.00;;;;;;4989190;28;20463;-81
2023/05/10 02:58:01;;;;;;;2.10;1.90;;;21.80;88.90;;;;;;4980422;28;20450;-79
2023/05/10 03:00:29;;;;;;;1.50;1.40;;;21.80;88.90;;;;;;4984467;28;20462;-81
2023/05/10 03:02:55;;;;;;;1.75;1.65;;;21.80;89.00;;;;;;4992861;28;21020;-80
2023/05/10 03:05:23;;;;;;;1.97;1.87;;;21.80;88.90;;;;;;4989390;28;20313;-80
2023/05/10 03:07:50;;;;;;;1.83;1.73;;;21.80;88.90;;;;;;4987825;28;20492;-81
2023/05/10 03:10:17;;;;;;;2.00;1.83;;;21.80;89.00;;;;;;4986210;28;20547;-81
2023/05/10 03:13:02;;;;;;;1.90;1.80;;;21.70;88.90;;;;;;4990236;28;20453;-80
2023/05/10 03:15:38;;;;;;;2.00;1.90;;;21.80;89.00;;;;;;4991662;28;20460;-81
2023/05/10 03:18:08;;;;;;;1.83;1.73;;;21.80;89.00;;;;;;4993772;28;20203;-81
2023/05/10 03:20:37;;;;;;;1.93;1.57;;;21.80;89.00;;;;;;4990909;28;20441;-81
2023/05/10 03:23:09;;;;;;;2.08;1.85;;;21.70;88.90;;;;;;4988965;28;20463;-80
2023/05/10 03:25:36;;;;;;;2.03;1.85;;;21.70;89.70;;;;;;4989205;28;20573;-81
2023/05/10 03:28:05;;;;;;;1.83;1.73;;;21.70;89.00;;;;;;4987109;28;20679;-80
2023/05/10 03:30:34;;;;;;;1.90;1.70;;;21.70;88.90;;;;;;4983102;28;20543;-81
2023/05/10 03:33:06;;;;;;;1.90;1.80;;;21.70;88.90;;;;;;4992379;28;20507;-80
2023/05/10 03:35:32;;;;;;;2.37;2.17;;;21.70;89.00;;;;;;4981736;28;20198;-81
2023/05/10 03:38:00;;;;;;;1.80;1.70;;;21.70;88.90;;;;;;4986026;28;21098;-79
2023/05/10 03:40:28;;;;;;;1.70;1.60;;;21.70;89.00;;;;;;4990411;28;20448;-79
2023/05/10 03:42:55;;;;;;;1.50;1.40;;;21.70;89.00;;;;;;4993366;28;20794;-80
2023/05/10 03:45:22;;;;;;;1.77;1.67;;;21.70;89.00;;;;;;4993086;28;20488;-80
2023/05/10 03:47:50;;;;;;;2.53;1.70;;;21.70;89.00;;;;;;4983845;28;20468;-80
2023/05/10 03:50:16;;;;;;;1.67;1.57;;;21.70;89.00;;;;;;4989037;28;20489;-80
2023/05/10 03:52:44;;;;;;;1.98;1.77;;;21.70;89.00;;;;;;4981409;28;20464;-82
2023/05/10 03:55:11;;;;;;;1.50;1.40;;;21.70;89.00;;;;;;4984608;28;20293;-80
2023/05/10 03:57:37;;;;;;;2.07;1.97;;;21.70;88.90;;;;;;5000869;28;20467;-81
2023/05/10 04:00:05;;;;;;;1.63;1.47;;;21.70;89.00;;;;;;4986116;28;20465;-81
2023/05/10 04:02:32;;;;;;;1.90;1.80;;;21.70;89.00;;;;;;4985868;28;20489;-81
2023/05/10 04:05:00;;;;;;;1.60;1.50;;;21.70;88.90;;;;;;4989869;28;21023;-80
2023/05/10 04:07:26;;;;;;;2.13;1.92;;;21.70;88.90;;;;;;4996172;28;20470;-80
2023/05/10 04:09:53;;;;;;;3.50;1.57;;;21.60;88.80;;;;;;4991214;28;20234;-80
2023/05/10 04:12:20;;;;;;;1.95;1.75;;;21.60;88.80;;;;;;4999278;28;20459;-80
2023/05/10 04:14:46;;;;;;;1.75;1.65;;;21.60;88.80;;;;;;4989641;28;20201;-80
2023/05/10 04:17:13;;;;;;;1.90;1.75;;;21.60;88.80;;;;;;4991478;28;20679;-79
2023/05/10 04:19:40;;;;;;;2.10;1.90;;;21.60;88.80;;;;;;4994000;28;20209;-80
2023/05/10 04:22:08;;;;;;;1.38;1.20;;;21.60;88.80;;;;;;4999343;28;20198;-80
2023/05/10 04:24:34;;;;;;;1.75;1.65;;;21.60;88.90;;;;;;4989374;28;20213;-81
2023/05/10 04:27:01;;;;;;;1.40;1.30;;;21.60;88.90;;;;;;4993041;28;20209;-80
2023/05/10 04:29:28;;;;;;;1.50;1.40;;;21.60;88.80;;;;;;4990567;28;20566;-80
2023/05/10 04:31:56;;;;;;;1.65;1.55;;;21.60;88.80;;;;;;4992937;28;20560;-81
2023/05/10 04:34:23;;;;;;;1.80;1.70;;;21.60;88.70;;;;;;4994792;28;20656;-81
2023/05/10 04:36:50;;;;;;;2.05;1.85;;;21.60;88.80;;;;;;4994381;28;20487;-80
2023/05/10 04:39:18;;;;;;;1.77;1.67;;;21.60;88.80;;;;;;4989729;28;20599;-79
2023/05/10 04:41:46;;;;;;;2.00;1.90;;;21.60;88.80;;;;;;4985794;28;20213;-82
2023/05/10 04:44:13;;;;;;;2.45;2.25;;;21.60;88.90;;;;;;4994330;28;20576;-81
2023/05/10 04:46:39;;;;;;;1.85;1.65;;;21.60;89.20;;;;;;4986251;28;20209;-82
2023/05/10 04:49:06;;;;;;;1.70;1.55;;;21.60;89.40;;;;;;4989731;28;20205;-80
2023/05/10 04:51:33;;;;;;;2.05;1.67;;;21.60;89.50;;;;;;4991214;28;20197;-82
2023/05/10 04:54:00;;;;;;;1.70;1.60;;;21.50;89.40;;;;;;4997562;28;20203;-81
2023/05/10 04:56:28;;;;;;;2.30;2.10;;;21.60;89.40;;;;;;4982254;28;20538;-81
2023/05/10 04:58:54;;;;;;;1.42;1.33;;;21.50;89.40;;;;;;4989225;28;20205;-81
2023/05/10 05:01:22;;;;;;;1.52;1.40;;;21.50;89.40;;;;;;4987458;28;20200;-81
2023/05/10 05:03:49;;;;;;;2.10;1.70;;;21.50;89.40;;;;;;4990073;28;20654;-81
2023/05/10 05:06:18;;;;;;;1.60;1.50;;;21.50;89.40;;;;;;4991788;28;20711;-80
2023/05/10 05:08:45;;;;;;;2.00;1.90;;;21.50;90.00;;;;;;4988662;28;20549;-80
2023/05/10 05:11:12;;;;;;;1.70;1.60;;;21.50;89.30;;;;;;4990786;28;20197;-80
2023/05/10 05:13:40;;;;;;;1.45;1.35;;;21.50;89.30;;;;;;4986727;28;20294;-81
2023/05/10 05:16:07;;;;;;;1.75;1.65;;;21.50;89.20;;;;;;4989132;28;20658;-81
2023/05/10 05:18:33;;;;;;;2.15;1.92;;;21.50;89.30;;;;;;4990585;28;20197;-80
2023/05/10 05:21:00;;;;;;;1.63;1.23;;;21.50;89.20;;;;;;4993247;28;20198;-81
2023/05/10 05:23:27;;;;;;;1.63;1.52;;;21.50;89.20;;;;;;4985795;28;20197;-80
2023/05/10 05:25:54;;;;;;;1.60;1.50;;;21.50;89.20;;;;;;4991585;28;20244;-80
2023/05/10 05:28:21;;;;;;;1.92;1.80;;;21.60;89.20;;;;;;4994433;28;20463;-80
2023/05/10 05:30:49;;;;;;;1.52;1.42;;;21.60;89.10;;;;;;4982890;28;20201;-80
2023/05/10 05:33:16;;;;;;;1.50;1.40;;;21.60;89.00;;;;;;4994439;28;20556;-80
2023/05/10 05:35:47;;;;;;;1.77;1.67;;;21.60;88.90;;;;;;4993930;28;20217;-81
2023/05/10 05:38:14;;;;;;;1.50;1.40;;;21.70;89.00;;;;;;4992161;28;21446;-82
2023/05/10 05:40:40;;;;;;;2.10;1.87;;;21.60;88.80;;;;;;4988325;28;20480;-81
2023/05/10 05:43:07;;;;;;;1.40;1.30;;;21.70;88.90;;;;;;4988688;28;20467;-81
2023/05/10 05:45:34;;;;;;;1.70;1.60;;;21.70;88.80;;;;;;4985669;28;20221;-81
2023/05/10 05:48:02;;;;;;;1.50;1.40;;;21.70;88.80;;;;;;4991718;28;20465;-82
2023/05/10 05:50:28;;;;;;;1.70;1.60;;;21.70;88.80;;;;;;4989476;28;20933;-81
2023/05/10 05:52:56;;;;;;;1.90;1.40;;;21.70;88.80;;;;;;4983622;28;20461;-82
2023/05/10 05:55:23;;;;;;;1.63;1.53;;;21.70;88.70;;;;;;4979080;28;20245;-83
2023/05/10 05:57:50;;;;;;;1.43;1.20;;;21.70;88.70;;;;;;4982290;28;20501;-79
2023/05/10 06:00:18;;;;;;;1.80;1.43;;;21.70;88.70;;;;;;4982461;28;20821;-79
2023/05/10 06:02:44;;;;;;;1.60;1.50;;;21.70;88.70;;;;;;4990841;28;20456;-80
2023/05/10 06:05:13;;;;;;;1.60;1.20;;;21.70;88.50;;;;;;4991455;28;20484;-79
2023/05/10 06:07:41;;;;;;;3.97;1.40;;;21.70;88.50;;;;;;4988139;28;20458;-79
2023/05/10 06:10:08;;;;;;;1.83;1.73;;;21.80;88.50;;;;;;4986659;28;20467;-79
2023/05/10 06:12:35;;;;;;;1.80;1.70;;;21.80;88.50;;;;;;4986545;28;20948;-79
2023/05/10 06:15:02;;;;;;;1.40;1.30;;;21.80;88.40;;;;;;4979920;28;20983;-79
2023/05/10 06:17:29;;;;;;;1.83;1.50;;;21.80;88.40;;;;;;4990829;28;20201;-81
2023/05/10 06:19:56;;;;;;;1.47;1.37;;;21.80;88.30;;;;;;4986034;28;20453;-79
2023/05/10 06:22:24;;;;;;;1.48;1.38;;;21.90;88.30;;;;;;4993922;28;20457;-82
2023/05/10 06:24:51;;;;;;;1.63;1.53;;;21.80;88.20;;;;;;4988396;28;20228;-79
2023/05/10 06:27:18;;;;;;;1.90;1.77;;;21.90;88.30;;;;;;4982464;28;20469;-79
2023/05/10 06:29:44;;;;;;;2.60;1.40;;;21.90;88.20;;;;;;4992111;28;20248;-78
2023/05/10 06:32:11;;;;;;;1.47;1.37;;;21.90;88.10;;;;;;4994325;28;20951;-80
2023/05/10 06:34:38;;;;;;;1.50;1.40;;;21.90;88.10;;;;;;4988285;28;20469;-79
2023/05/10 06:37:05;;;;;;;1.23;1.10;;;21.90;88.00;;;;;;4994554;28;20484;-79
2023/05/10 06:39:33;;;;;;;1.33;1.23;;;21.90;87.90;;;;;;4987969;28;20468;-79
2023/05/10 06:42:01;;;;;;;1.47;1.30;;;21.90;87.90;;;;;;4986863;28;20470;-79
2023/05/10 06:44:28;;;;;;;1.30;1.20;;;22.00;88.00;;;;;;4987361;28;20496;-79
2023/05/10 06:46:55;;;;;;;1.37;1.27;;;22.00;87.90;;;;;;4974175;28;20484;-79
2023/05/10 06:49:22;;;;;;;1.47;1.37;;;21.90;87.80;;;;;;4982227;28;20542;-81
2023/05/10 06:51:49;;;;;;;1.40;1.20;;;21.90;87.70;;;;;;4984214;28;20467;-79
2023/05/10 06:54:15;;;;;;;1.10;1.00;;;22.00;87.90;;;;;;4982148;28;20472;-79
2023/05/10 06:56:43;;;;;;;1.40;1.30;;;22.00;87.80;;;;;;4989937;28;20859;-80
2023/05/10 06:59:10;;;;;;;2.03;1.63;;;22.00;87.80;;;;;;4995866;28;20471;-79
2023/05/10 07:01:37;;;;;;;1.50;1.40;;;21.90;87.60;;;;;;4988709;28;20486;-79
2023/05/10 07:04:04;;;;;;;1.50;1.40;;;21.90;87.60;;;;;;4986276;28;20465;-79
2023/05/10 07:06:30;;;;;;;1.63;1.53;;;21.90;87.60;;;;;;4994197;28;20506;-80
2023/05/10 07:08:57;;;;;;;1.30;1.20;;;21.90;87.60;;;;;;4996215;28;20495;-80
2023/05/10 07:11:24;;;;;;;1.50;1.40;;;21.90;87.60;;;;;;4980585;28;20514;-79
2023/05/10 07:13:52;;;;;;;1.53;1.43;;;22.00;87.60;;;;;;4992956;28;20460;-79
2023/05/10 07:16:19;;;;;;;1.20;1.10;;;22.00;87.60;;;;;;4987894;28;20456;-80
2023/05/10 07:18:46;;;;;;;1.63;1.30;;;22.00;88.50;;;;;;4988314;28;20797;-79
2023/05/10 07:21:13;;;;;;;1.87;1.30;;;22.00;87.60;;;;;;4988266;28;20487;-78
2023/05/10 07:23:40;;;;;;;3.40;1.90;;;22.00;87.50;;;;;;4992532;28;21021;-80
2023/05/10 07:26:06;;;;;;;1.43;1.33;;;22.00;87.60;;;;;;4986590;28;20488;-79
2023/05/10 07:28:33;;;;;;;1.17;1.07;;;22.00;89.10;;;;;;4986709;28;20809;-78
2023/05/10 07:31:01;;;;;;;2.03;1.83;;;22.00;90.20;;;;;;4986743;28;20471;-79
2023/05/10 07:33:28;;;;;;;2.30;2.10;;;22.00;90.20;;;;;;4990950;28;20936;-76
2023/05/10 07:35:55;;;;;;;2.50;2.30;;;22.00;90.20;;;;;;4982432;28;20448;-78
2023/05/10 07:38:23;;;;;;;1.90;1.80;;;21.90;90.00;;;;;;4990986;28;20468;-84
2023/05/10 07:40:50;;;;;;;4.07;3.77;;;22.00;90.30;;;;;;4985901;28;20522;-79
2023/05/10 07:43:16;;;;;;;6.80;6.20;;;22.00;90.20;;;;;;4993609;28;20476;-78
2023/05/10 07:45:43;;;;;;;10.93;9.90;;;22.00;90.20;;;;;;4985842;28;21515;-76
2023/05/10 07:48:11;;;;;;;13.43;10.87;;;21.90;90.20;;;;;;4988141;28;20448;-78
2023/05/10 07:50:38;;;;;;;22.27;14.17;;;21.90;90.20;;;;;;4987654;28;20954;-78
2023/05/10 07:53:05;;;;;;;16.57;14.83;;;21.90;90.30;;;;;;4985431;28;21055;-78
2023/05/10 07:55:31;;;;;;;16.60;14.67;;;21.80;90.30;;;;;;4993695;28;20990;-77
2023/05/10 07:58:00;;;;;;;18.13;16.43;;;21.80;90.20;;;;;;4992622;28;20448;-75
2023/05/10 08:00:27;;;;;;;15.40;13.70;;;21.80;90.20;;;;;;4981382;28;20481;-74
2023/05/10 08:02:54;;;;;;;15.03;13.53;;;21.80;90.20;;;;;;4987116;28;20468;-77
2023/05/10 08:05:22;;;;;;;14.27;12.88;;;21.80;90.20;;;;;;4981810;28;20480;-75
2023/05/10 08:07:49;;;;;;;13.43;12.02;;;21.90;90.20;;;;;;4984061;28;20197;-76
2023/05/10 08:10:16;;;;;;;13.63;12.20;;;21.80;90.10;;;;;;4996851;28;20201;-76
2023/05/10 08:12:43;;;;;;;12.00;10.93;;;21.90;90.10;;;;;;4990441;28;20457;-75
2023/05/10 08:15:11;;;;;;;12.77;11.07;;;21.90;90.10;;;;;;4980484;28;20460;-79
2023/05/10 08:17:37;;;;;;;12.90;11.50;;;21.90;90.00;;;;;;4990555;28;20974;-75
2023/05/10 08:20:05;;;;;;;12.57;10.77;;;21.90;90.00;;;;;;4993384;28;20460;-76
2023/05/10 08:22:35;;;;;;;11.97;10.87;;;21.90;89.90;;;;;;4981328;28;20456;-78
2023/05/10 08:25:02;;;;;;;11.75;10.55;;;21.90;89.80;;;;;;4983025;28;20463;-78
2023/05/10 08:27:29;;;;;;;9.70;8.25;;;22.00;89.90;;;;;;4988631;28;20228;-75
2023/05/10 08:29:55;;;;;;;10.33;9.23;;;22.00;89.80;;;;;;4982701;28;20912;-75
2023/05/10 08:32:22;;;;;;;12.30;9.37;;;22.00;89.80;;;;;;4989230;28;21626;-75
2023/05/10 08:34:49;;;;;;;11.37;10.27;;;22.00;89.70;;;;;;4985784;28;20456;-75
2023/05/10 08:37:16;;;;;;;11.55;10.45;;;22.00;89.60;;;;;;4984764;28;20919;-75
2023/05/10 08:39:45;;;;;;;10.93;9.82;;;22.00;89.60;;;;;;4979262;28;20212;-75
2023/05/10 08:42:13;;;;;;;10.48;9.57;;;22.00;89.50;;;;;;4986205;28;20288;-74
2023/05/10 08:44:40;;;;;;;10.90;9.43;;;22.00;89.50;;;;;;4989945;28;20212;-78
2023/05/10 08:47:07;;;;;;;9.50;8.68;;;22.00;89.40;;;;;;4986426;28;20497;-76
2023/05/10 08:49:34;;;;;;;10.17;9.30;;;22.00;89.30;;;;;;4993142;28;20197;-80
2023/05/10 08:52:05;;;;;;;11.17;10.17;;;22.10;89.40;;;;;;4985266;28;20463;-75
2023/05/10 08:54:32;;;;;;;10.67;9.63;;;22.00;89.20;;;;;;4985908;28;20461;-74
2023/05/10 08:57:01;;;;;;;10.70;9.70;;;22.10;89.30;;;;;;4983131;28;20784;-75
2023/05/10 08:59:28;;;;;;;11.60;8.50;;;22.00;89.20;;;;;;4985377;28;20459;-78
2023/05/10 09:01:58;;;;;;;8.43;7.63;;;22.00;89.10;;;;;;4980164;28;20467;-77
2023/05/10 09:04:25;;;;;;;9.87;9.00;;;22.10;89.20;;;;;;4995537;28;20460;-77
2023/05/10 09:06:52;;;;;;;13.00;10.20;;;22.10;89.20;;;;;;4986750;28;20840;-79
2023/05/10 09:09:20;;;;;;;11.23;10.23;;;22.10;89.10;;;;;;4986186;28;20468;-75
2023/05/10 09:11:47;;;;;;;10.73;9.70;;;22.10;89.10;;;;;;4985770;28;20464;-77
2023/05/10 09:14:17;;;;;;;10.43;9.50;;;22.00;89.00;;;;;;4989050;28;20452;-77
2023/05/10 09:16:43;;;;;;;9.77;8.80;;;22.10;89.10;;;;;;4982242;28;20465;-76
2023/05/10 09:19:10;;;;;;;10.40;9.37;;;22.00;88.90;;;;;;4989019;28;20453;-75
2023/05/10 09:21:38;;;;;;;11.23;9.83;;;22.10;89.00;;;;;;4996036;28;20482;-75
2023/05/10 09:24:06;;;;;;;9.70;8.90;;;22.10;89.00;;;;;;4987611;28;20507;-77
2023/05/10 09:26:33;;;;;;;11.03;10.03;;;22.10;89.00;;;;;;4988284;28;20529;-75
2023/05/10 09:29:02;;;;;;;11.13;10.17;;;22.10;88.90;;;;;;4993564;28;20473;-75
2023/05/10 09:31:46;;;;;;;10.23;9.33;;;22.10;88.90;;;;;;4984998;28;20527;-79
2023/05/10 09:34:17;;;;;;;10.93;9.80;;;22.10;89.10;;;;;;4988830;28;20517;-78
2023/05/10 09:36:56;;;;;;;9.93;8.47;;;22.10;89.10;;;;;;4995655;28;20538;-78
2023/05/10 09:39:31;;;;;;;12.70;10.93;;;22.10;89.40;;;;;;4997459;28;20486;-77
2023/05/10 09:41:58;;;;;;;9.37;8.50;;;22.00;89.80;;;;;;4988537;28;20462;-75
2023/05/10 09:44:26;;;;;;;9.77;8.87;;;22.00;90.20;;;;;;4992936;28;20808;-78
2023/05/10 09:46:55;;;;;;;17.40;8.60;;;22.10;90.70;;;;;;4994248;28;20563;-83
2023/05/10 09:49:25;;;;;;;10.27;8.43;;;22.00;90.40;;;;;;4992105;28;20461;-87
2023/05/10 09:52:02;;;;;;;10.53;9.00;;;22.00;90.50;;;;;;4991668;28;20555;-86
2023/05/10 09:54:29;;;;;;;10.10;7.80;;;22.10;90.50;;;;;;4989654;28;20467;-85
2023/05/10 09:56:56;;;;;;;8.20;7.57;;;22.20;90.60;;;;;;4992367;28;20460;-85
2023/05/10 09:59:25;;;;;;;7.40;6.60;;;22.20;90.50;;;;;;4993419;28;20462;-85
2023/05/10 10:01:53;;;;;;;8.50;7.80;;;22.20;90.50;;;;;;4984119;28;20776;-83
2023/05/10 10:04:23;;;;;;;8.97;6.83;;;22.20;90.40;;;;;;4992394;28;20463;-86
2023/05/10 10:07:00;;;;;;;16.43;6.87;;;22.20;90.60;;;;;;4983413;28;20498;-88
2023/05/10 10:09:28;;;;;;;8.27;7.47;;;22.20;90.40;;;;;;4992426;28;20466;-84
2023/05/10 10:11:56;;;;;;;6.60;6.00;;;22.30;90.40;;;;;;4983138;28;20985;-85
2023/05/10 10:14:23;;;;;;;7.80;7.10;;;22.40;90.50;;;;;;4987118;28;22181;-86
2023/05/10 10:16:50;;;;;;;6.97;6.37;;;22.40;90.40;;;;;;4982170;28;20943;-80
2023/05/10 10:19:17;;;;;;;8.27;7.57;;;22.40;90.40;;;;;;4993149;28;20456;-80
2023/05/10 10:21:45;;;;;;;8.67;7.40;;;22.40;90.40;;;;;;4981422;28;20468;-82
2023/05/10 10:24:12;;;;;;;7.77;7.17;;;22.40;90.60;;;;;;4993058;28;20962;-85
2023/05/10 10:26:42;;;;;;;8.10;7.40;;;22.40;90.60;;;;;;5000496;28;20556;-86
2023/05/10 10:29:17;;;;;;;7.10;6.30;;;22.40;90.60;;;;;;4998994;28;20463;-86
2023/05/10 10:31:50;;;;;;;7.17;6.57;;;22.50;90.60;;;;;;4985624;28;20467;-88
2023/05/10 10:34:26;;;;;;;11.30;9.30;;;22.50;90.60;;;;;;4996089;28;20461;-87
2023/05/10 10:36:59;;;;;;;6.67;6.17;;;22.60;90.60;;;;;;4999320;28;20994;-86
2023/05/10 10:39:26;;;;;;;8.17;7.37;;;22.60;90.50;;;;;;4992232;28;20528;-87
2023/05/10 10:41:54;;;;;;;7.27;6.57;;;22.60;90.50;;;;;;4998394;28;20445;-87
2023/05/10 10:44:36;;;;;;;6.80;6.30;;;22.70;90.40;;;;;;4992316;28;21038;-86
2023/05/10 10:47:29;;;;;;;7.67;7.00;;;22.70;90.30;;;;;;4985678;28;20484;-86
2023/05/10 10:50:07;;;;;;;6.50;5.77;;;22.70;90.20;;;;;;4985644;28;20467;-86
2023/05/10 10:52:36;;;;;;;6.97;6.47;;;22.80;90.30;;;;;;4975674;28;20598;-86
2023/05/10 10:55:07;;;;;;;6.33;5.80;;;22.80;90.20;;;;;;4980433;28;20460;-85
2023/05/10 10:57:42;;;;;;;7.33;6.73;;;22.80;90.10;;;;;;4983364;28;20544;-85
2023/05/10 11:00:34;;;;;;;6.03;5.50;;;22.80;90.10;;;;;;4987988;28;21953;-84
2023/05/10 11:03:06;;;;;;;7.50;6.90;;;22.90;90.00;;;;;;4987523;28;20466;-86
2023/05/10 11:05:42;;;;;;;7.03;6.40;;;22.90;90.00;;;;;;4986274;28;20961;-87
2023/05/10 11:08:19;;;;;;;7.20;6.60;;;22.90;90.00;;;;;;4989881;28;20488;-87
2023/05/10 11:11:10;;;;;;;7.72;7.05;;;22.90;89.90;;;;;;4986141;28;20531;-81
2023/05/10 11:13:44;;;;;;;8.50;7.70;;;23.10;89.80;;;;;;4980591;28;20202;-93
2023/05/10 11:16:16;;;;;;;8.67;7.87;;;23.10;89.50;;;;;;4990251;28;21034;-87
2023/05/10 11:18:54;;;;;;;8.43;6.57;;;23.10;89.60;;;;;;4989504;28;20467;-82
2023/05/10 11:21:21;;;;;;;6.90;6.40;;;23.00;89.30;;;;;;4986392;28;20971;-85
2023/05/10 11:23:56;;;;;;;7.53;6.83;;;23.10;89.50;;;;;;4981962;28;20453;-87
2023/05/10 11:26:25;;;;;;;8.03;7.10;;;23.10;89.40;;;;;;4979647;28;20927;-85
2023/05/10 11:28:54;;;;;;;7.43;6.83;;;23.10;89.40;;;;;;4982886;28;20575;-86
2023/05/10 11:31:21;;;;;;;6.43;5.83;;;23.10;89.30;;;;;;4981106;28;20492;-85
2023/05/10 11:33:50;;;;;;;7.57;6.97;;;23.10;89.30;;;;;;4977262;28;20468;-88
2023/05/10 11:36:19;;;;;;;6.83;6.13;;;23.10;89.30;;;;;;4990013;28;20495;-87
2023/05/10 11:38:46;;;;;;;9.30;6.67;;;23.10;89.10;;;;;;4982848;28;20552;-87
2023/05/10 11:41:16;;;;;;;6.80;6.10;;;23.10;89.10;;;;;;4979882;28;20461;-87
2023/05/10 11:43:43;;;;;;;7.10;6.50;;;23.10;89.00;;;;;;4982868;28;20966;-85
2023/05/10 11:46:12;;;;;;;6.90;6.30;;;23.10;88.90;;;;;;4979701;28;20914;-84
2023/05/10 11:48:40;;;;;;;8.47;6.53;;;23.10;89.00;;;;;;4981557;28;20456;-85
2023/05/10 11:51:07;;;;;;;7.40;6.83;;;23.20;88.90;;;;;;4990189;28;20995;-87
2023/05/10 11:53:34;;;;;;;6.93;6.33;;;23.20;88.90;;;;;;4982473;28;20460;-87
2023/05/10 11:56:05;;;;;;;10.93;6.50;;;23.20;88.80;;;;;;4977527;28;20460;-89
2023/05/10 11:58:33;;;;;;;6.33;5.83;;;23.20;88.70;;;;;;4987196;28;20459;-86
2023/05/10 12:01:01;;;;;;;6.40;5.90;;;23.20;88.70;;;;;;4971870;28;20465;-84
2023/05/10 12:03:28;;;;;;;8.00;7.30;;;23.20;88.70;;;;;;4990083;28;20461;-84
2023/05/10 12:05:55;;;;;;;6.87;6.27;;;23.20;88.50;;;;;;4982911;28;20464;-82
2023/05/10 12:08:24;;;;;;;6.93;6.33;;;23.20;88.60;;;;;;4985992;28;20495;-83
2023/05/10 12:10:50;;;;;;;6.60;6.00;;;23.20;89.20;;;;;;4986452;28;20456;-88
2023/05/10 12:13:18;;;;;;;8.03;7.33;;;23.20;88.40;;;;;;4986126;28;20472;-88
2023/05/10 12:15:46;;;;;;;7.20;6.60;;;23.20;88.30;;;;;;4987896;28;20484;-88
2023/05/10 12:18:14;;;;;;;6.80;6.23;;;23.20;88.20;;;;;;4990523;28;20456;-87
2023/05/10 12:20:42;;;;;;;7.07;6.37;;;23.20;88.20;;;;;;4995733;28;20464;-87
2023/05/10 12:23:10;;;;;;;6.93;6.33;;;23.20;88.10;;;;;;4988878;28;20526;-88
2023/05/10 12:25:38;;;;;;;6.33;5.80;;;23.30;88.30;;;;;;4990208;28;20531;-86
2023/05/10 12:28:07;;;;;;;7.50;6.80;;;23.30;88.20;;;;;;4987264;28;20521;-86
2023/05/10 12:30:35;;;;;;;6.93;6.33;;;23.30;88.30;;;;;;4986817;28;20817;-84
2023/05/10 12:33:07;;;;;;;8.10;6.53;;;23.30;88.10;;;;;;5002844;28;20467;-84
2023/05/10 12:35:43;;;;;;;6.43;5.90;;;23.30;87.90;;;;;;4998408;28;20441;-86
2023/05/10 12:38:25;;;;;;;6.87;6.27;;;23.30;88.10;;;;;;4994814;28;20498;-84
2023/05/10 12:40:52;;;;;;;5.70;5.20;;;23.30;87.80;;;;;;4985100;28;20468;-85
2023/05/10 12:43:19;;;;;;;9.13;8.27;;;23.30;87.80;;;;;;4981453;28;20808;-86
2023/05/10 12:45:47;;;;;;;9.10;7.90;;;23.30;87.60;;;;;;4988272;28;20452;-81
2023/05/10 12:48:15;;;;;;;7.87;7.10;;;23.30;87.30;;;;;;4997666;28;20484;-86
2023/05/10 12:50:44;;;;;;;6.87;6.27;;;23.20;87.40;;;;;;4990540;28;20848;-89
2023/05/10 12:53:10;;;;;;;7.57;6.93;;;23.20;87.40;;;;;;4990272;28;20463;-90